sensor_id;sensor_type;location;lat;lon;timestamp;pressure;altitude;pressure_sealevel;temperature;humidity
59168;BME280;70412;55.048;73.268;2023-11-21T00:01:41;102508.91;;;-13.73;100.00
59168;BME280;70412;55.048;73.268;2023-11-21T00:04:43;102507.13;;;-13.61;100.00
59168;BME280;70412;55.048;73.268;2023-11-21T00:07:45;102508.69;;;-13.77;100.00
59168;BME280;70412;55.048;73.268;2023-11-21T00:10:48;102516.69;;;-13.70;100.00
59168;BME280;70412;55.048;73.268;2023-11-21T00:13:51;102530.06;;;-13.71;100.00
59168;BME280;70412;55.048;73.268;2023-11-21T00:16:55;102552.78;;;-13.71;100.00
59168;BME280;70412;55.048;73.268;2023-11-21T00:19:58;102556.44;;;-13.80;100.00
59168;BME280;70412;55.048;73.268;2023-11-21T00:23:00;102566.75;;;-13.63;100.00
59168;BME280;70412;55.048;73.268;2023-11-21T00:26:04;102564.22;;;-13.63;100.00
59168;BME280;70412;55.048;73.268;2023-11-21T00:29:07;102560.16;;;-13.74;100.00
59168;BME280;70412;55.048;73.268;2023-11-21T00:32:10;102563.66;;;-13.59;100.00
59168;BME280;70412;55.048;73.268;2023-11-21T00:35:13;102535.81;;;-13.74;100.00
59168;BME280;70412;55.048;73.268;2023-11-21T00:38:15;102538.41;;;-13.86;100.00
59168;BME280;70412;55.048;73.268;2023-11-21T00:41:21;102581.56;;;-13.81;100.00
59168;BME280;70412;55.048;73.268;2023-11-21T00:44:23;102576.28;;;-13.59;100.00
59168;BME280;70412;55.048;73.268;2023-11-21T00:47:26;102581.97;;;-13.62;100.00
59168;BME280;70412;55.048;73.268;2023-11-21T00:50:28;102570.44;;;-13.71;100.00
59168;BME280;70412;55.048;73.268;2023-11-21T00:53:32;102554.44;;;-13.72;100.00
59168;BME280;70412;55.048;73.268;2023-11-21T00:56:34;102586.53;;;-13.69;100.00
59168;BME280;70412;55.048;73.268;2023-11-21T00:59:36;102579.06;;;-13.68;100.00
59168;BME280;70412;55.048;73.268;2023-11-21T01:02:39;102567.41;;;-13.79;100.00
59168;BME280;70412;55.048;73.268;2023-11-21T01:05:41;102575.28;;;-13.74;100.00
59168;BME280;70412;55.048;73.268;2023-11-21T01:08:44;102570.91;;;-13.77;100.00
59168;BME280;70412;55.048;73.268;2023-11-21T01:11:46;102564.09;;;-13.78;100.00
59168;BME280;70412;55.048;73.268;2023-11-21T01:14:50;102567.28;;;-13.94;100.00
59168;BME280;70412;55.048;73.268;2023-11-21T01:17:53;102576.13;;;-14.00;100.00
59168;BME280;70412;55.048;73.268;2023-11-21T01:20:58;102575.53;;;-14.10;100.00
59168;BME280;70412;55.048;73.268;2023-11-21T01:24:02;102579.66;;;-14.10;100.00
59168;BME280;70412;55.048;73.268;2023-11-21T01:27:05;102561.06;;;-14.25;100.00
59168;BME280;70412;55.048;73.268;2023-11-21T01:30:07;102584.31;;;-14.16;100.00
59168;BME280;70412;55.048;73.268;2023-11-21T01:33:12;102584.63;;;-14.12;100.00
59168;BME280;70412;55.048;73.268;2023-11-21T01:36:15;102590.06;;;-14.19;100.00
59168;BME280;70412;55.048;73.268;2023-11-21T01:39:20;102589.19;;;-14.19;100.00
59168;BME280;70412;55.048;73.268;2023-11-21T01:42:25;102574.31;;;-14.28;100.00
59168;BME280;70412;55.048;73.268;2023-11-21T01:45:31;102580.22;;;-14.41;100.00
59168;BME280;70412;55.048;73.268;2023-11-21T01:48:35;102572.03;;;-14.50;100.00
59168;BME280;70412;55.048;73.268;2023-11-21T01:51:38;102582.09;;;-14.50;100.00
59168;BME280;70412;55.048;73.268;2023-11-21T01:54:41;102570.31;;;-14.62;100.00
59168;BME280;70412;55.048;73.268;2023-11-21T01:57:44;102558.59;;;-14.62;100.00
59168;BME280;70412;55.048;73.268;2023-11-21T02:00:48;102555.03;;;-14.77;100.00
59168;BME280;70412;55.048;73.268;2023-11-21T02:03:52;102564.50;;;-14.86;100.00
59168;BME280;70412;55.048;73.268;2023-11-21T02:06:56;102561.63;;;-14.79;100.00
59168;BME280;70412;55.048;73.268;2023-11-21T02:09:59;102560.31;;;-14.74;100.00
59168;BME280;70412;55.048;73.268;2023-11-21T02:13:01;102551.53;;;-14.79;100.00
59168;BME280;70412;55.048;73.268;2023-11-21T02:16:05;102558.78;;;-15.09;100.00
59168;BME280;70412;55.048;73.268;2023-11-21T02:19:07;102567.00;;;-15.23;100.00
59168;BME280;70412;55.048;73.268;2023-11-21T02:22:13;102572.81;;;-15.24;100.00
59168;BME280;70412;55.048;73.268;2023-11-21T02:25:18;102568.53;;;-15.25;100.00
59168;BME280;70412;55.048;73.268;2023-11-21T02:28:20;102583.09;;;-15.21;100.00
59168;BME280;70412;55.048;73.268;2023-11-21T02:31:28;102592.28;;;-15.33;100.00
59168;BME280;70412;55.048;73.268;2023-11-21T02:34:30;102591.31;;;-15.35;100.00
59168;BME280;70412;55.048;73.268;2023-11-21T02:37:33;102579.50;;;-15.36;100.00
59168;BME280;70412;55.048;73.268;2023-11-21T02:40:35;102583.03;;;-15.57;100.00
59168;BME280;70412;55.048;73.268;2023-11-21T02:43:37;102587.63;;;-15.52;100.00
59168;BME280;70412;55.048;73.268;2023-11-21T02:46:40;102584.22;;;-15.52;100.00
59168;BME280;70412;55.048;73.268;2023-11-21T02:49:44;102570.88;;;-15.63;100.00
59168;BME280;70412;55.048;73.268;2023-11-21T02:52:49;102555.47;;;-15.91;100.00
59168;BME280;70412;55.048;73.268;2023-11-21T02:55:53;102581.03;;;-15.85;100.00
59168;BME280;70412;55.048;73.268;2023-11-21T02:58:56;102580.41;;;-15.94;100.00
59168;BME280;70412;55.048;73.268;2023-11-21T03:01:59;102542.44;;;-15.97;100.00
59168;BME280;70412;55.048;73.268;2023-11-21T03:05:02;102589.16;;;-15.77;100.00
59168;BME280;70412;55.048;73.268;2023-11-21T03:08:04;102574.47;;;-15.83;100.00
59168;BME280;70412;55.048;73.268;2023-11-21T03:11:07;102581.47;;;-16.02;100.00
59168;BME280;70412;55.048;73.268;2023-11-21T03:14:09;102554.13;;;-16.09;100.00
59168;BME280;70412;55.048;73.268;2023-11-21T03:17:12;102563.97;;;-16.01;100.00
59168;BME280;70412;55.048;73.268;2023-11-21T03:20:16;102554.22;;;-16.20;100.00
59168;BME280;70412;55.048;73.268;2023-11-21T03:23:18;102547.13;;;-16.13;100.00
59168;BME280;70412;55.048;73.268;2023-11-21T03:26:21;102550.09;;;-16.07;100.00
59168;BME280;70412;55.048;73.268;2023-11-21T03:29:23;102553.69;;;-16.04;100.00
59168;BME280;70412;55.048;73.268;2023-11-21T03:32:26;102575.38;;;-15.94;100.00
59168;BME280;70412;55.048;73.268;2023-11-21T03:35:28;102579.63;;;-15.93;100.00
59168;BME280;70412;55.048;73.268;2023-11-21T03:38:30;102579.72;;;-15.80;100.00
59168;BME280;70412;55.048;73.268;2023-11-21T03:41:33;102573.38;;;-15.98;100.00
59168;BME280;70412;55.048;73.268;2023-11-21T03:44:35;102611.56;;;-15.69;100.00
59168;BME280;70412;55.048;73.268;2023-11-21T03:47:38;102586.19;;;-15.72;100.00
59168;BME280;70412;55.048;73.268;2023-11-21T03:50:42;102611.88;;;-15.64;100.00
59168;BME280;70412;55.048;73.268;2023-11-21T03:53:47;102608.38;;;-15.66;100.00
59168;BME280;70412;55.048;73.268;2023-11-21T03:56:49;102603.38;;;-15.54;100.00
59168;BME280;70412;55.048;73.268;2023-11-21T03:59:51;102591.00;;;-15.51;100.00
59168;BME280;70412;55.048;73.268;2023-11-21T04:02:54;102603.22;;;-15.33;100.00
59168;BME280;70412;55.048;73.268;2023-11-21T04:05:56;102595.47;;;-15.36;100.00
59168;BME280;70412;55.048;73.268;2023-11-21T04:08:59;102597.41;;;-15.20;100.00
59168;BME280;70412;55.048;73.268;2023-11-21T04:12:02;102569.81;;;-15.07;100.00
59168;BME280;70412;55.048;73.268;2023-11-21T04:15:05;102571.97;;;-15.00;100.00
59168;BME280;70412;55.048;73.268;2023-11-21T04:18:07;102567.91;;;-14.98;100.00
59168;BME280;70412;55.048;73.268;2023-11-21T04:21:10;102562.66;;;-14.64;100.00
59168;BME280;70412;55.048;73.268;2023-11-21T04:24:12;102571.75;;;-14.66;100.00
59168;BME280;70412;55.048;73.268;2023-11-21T04:27:15;102575.25;;;-14.64;100.00
59168;BME280;70412;55.048;73.268;2023-11-21T04:30:18;102576.22;;;-14.62;100.00
59168;BME280;70412;55.048;73.268;2023-11-21T04:33:21;102477.00;;;-15.14;100.00
59168;BME280;70412;55.048;73.268;2023-11-21T04:36:24;102558.13;;;-14.31;100.00
59168;BME280;70412;55.048;73.268;2023-11-21T04:39:27;102553.66;;;-14.35;100.00
59168;BME280;70412;55.048;73.268;2023-11-21T04:42:29;102545.19;;;-14.24;100.00
59168;BME280;70412;55.048;73.268;2023-11-21T04:45:31;102532.97;;;-14.18;100.00
59168;BME280;70412;55.048;73.268;2023-11-21T04:48:34;102510.28;;;-13.92;100.00
59168;BME280;70412;55.048;73.268;2023-11-21T04:51:36;102522.78;;;-13.67;100.00
59168;BME280;70412;55.048;73.268;2023-11-21T04:54:39;102533.06;;;-13.64;100.00
59168;BME280;70412;55.048;73.268;2023-11-21T04:57:41;102552.16;;;-13.81;100.00
59168;BME280;70412;55.048;73.268;2023-11-21T05:00:44;102558.78;;;-13.69;100.00
59168;BME280;70412;55.048;73.268;2023-11-21T05:03:46;102552.28;;;-13.39;100.00
59168;BME280;70412;55.048;73.268;2023-11-21T05:06:49;102538.78;;;-13.66;100.00
59168;BME280;70412;55.048;73.268;2023-11-21T05:09:51;102544.72;;;-13.66;100.00
59168;BME280;70412;55.048;73.268;2023-11-21T05:12:54;102550.63;;;-13.65;100.00
59168;BME280;70412;55.048;73.268;2023-11-21T05:16:09;102549.06;;;-13.63;100.00
59168;BME280;70412;55.048;73.268;2023-11-21T05:19:12;102549.53;;;-13.29;100.00
59168;BME280;70412;55.048;73.268;2023-11-21T05:22:14;102521.06;;;-13.27;100.00
59168;BME280;70412;55.048;73.268;2023-11-21T05:25:17;102538.44;;;-13.05;100.00
59168;BME280;70412;55.048;73.268;2023-11-21T05:28:22;102534.66;;;-13.11;100.00
59168;BME280;70412;55.048;73.268;2023-11-21T05:31:25;102534.63;;;-12.98;100.00
59168;BME280;70412;55.048;73.268;2023-11-21T05:34:28;102530.63;;;-13.49;100.00
59168;BME280;70412;55.048;73.268;2023-11-21T05:37:30;102542.78;;;-13.02;100.00
59168;BME280;70412;55.048;73.268;2023-11-21T05:40:33;102556.19;;;-12.90;100.00
59168;BME280;70412;55.048;73.268;2023-11-21T05:43:35;102565.19;;;-13.48;100.00
59168;BME280;70412;55.048;73.268;2023-11-21T05:46:38;102558.66;;;-13.31;100.00
59168;BME280;70412;55.048;73.268;2023-11-21T05:49:40;102561.19;;;-13.45;100.00
59168;BME280;70412;55.048;73.268;2023-11-21T05:52:44;102553.94;;;-13.53;100.00
59168;BME280;70412;55.048;73.268;2023-11-21T05:55:46;102549.56;;;-13.56;100.00
59168;BME280;70412;55.048;73.268;2023-11-21T05:58:49;102556.38;;;-13.55;100.00
59168;BME280;70412;55.048;73.268;2023-11-21T06:01:53;102537.22;;;-13.25;100.00
59168;BME280;70412;55.048;73.268;2023-11-21T06:04:55;102550.47;;;-13.01;100.00
59168;BME280;70412;55.048;73.268;2023-11-21T06:07:58;102538.97;;;-13.37;100.00
59168;BME280;70412;55.048;73.268;2023-11-21T06:11:03;102524.81;;;-13.48;100.00
59168;BME280;70412;55.048;73.268;2023-11-21T06:14:06;102555.50;;;-13.42;100.00
59168;BME280;70412;55.048;73.268;2023-11-21T06:17:09;102532.88;;;-13.40;100.00
59168;BME280;70412;55.048;73.268;2023-11-21T06:20:12;102528.09;;;-13.36;100.00
59168;BME280;70412;55.048;73.268;2023-11-21T06:23:15;102518.53;;;-13.13;100.00
59168;BME280;70412;55.048;73.268;2023-11-21T06:26:18;102521.03;;;-13.55;100.00
59168;BME280;70412;55.048;73.268;2023-11-21T06:29:20;102516.78;;;-13.15;100.00
59168;BME280;70412;55.048;73.268;2023-11-21T06:32:23;102519.56;;;-12.10;100.00
59168;BME280;70412;55.048;73.268;2023-11-21T06:35:25;102498.66;;;-12.22;100.00
59168;BME280;70412;55.048;73.268;2023-11-21T06:38:31;102495.59;;;-12.31;100.00
59168;BME280;70412;55.048;73.268;2023-11-21T06:41:34;102506.84;;;-12.26;100.00
59168;BME280;70412;55.048;73.268;2023-11-21T06:44:39;102501.88;;;-12.39;100.00
59168;BME280;70412;55.048;73.268;2023-11-21T06:47:43;102496.00;;;-12.09;100.00
59168;BME280;70412;55.048;73.268;2023-11-21T06:50:45;102497.25;;;-12.17;100.00
59168;BME280;70412;55.048;73.268;2023-11-21T06:53:48;102491.03;;;-11.93;100.00
59168;BME280;70412;55.048;73.268;2023-11-21T06:56:53;102494.09;;;-12.13;100.00
59168;BME280;70412;55.048;73.268;2023-11-21T06:59:58;102478.84;;;-12.44;100.00
59168;BME280;70412;55.048;73.268;2023-11-21T07:03:00;102468.63;;;-12.01;100.00
59168;BME280;70412;55.048;73.268;2023-11-21T07:06:03;102467.59;;;-12.19;100.00
59168;BME280;70412;55.048;73.268;2023-11-21T07:09:06;102470.19;;;-11.88;100.00
59168;BME280;70412;55.048;73.268;2023-11-21T07:12:10;102473.69;;;-12.16;100.00
59168;BME280;70412;55.048;73.268;2023-11-21T07:15:13;102475.28;;;-12.18;100.00
59168;BME280;70412;55.048;73.268;2023-11-21T07:18:15;102465.88;;;-12.35;100.00
59168;BME280;70412;55.048;73.268;2023-11-21T07:21:17;102477.00;;;-12.02;100.00
59168;BME280;70412;55.048;73.268;2023-11-21T07:24:20;102481.22;;;-12.32;100.00
59168;BME280;70412;55.048;73.268;2023-11-21T07:27:22;102478.91;;;-11.98;100.00
59168;BME280;70412;55.048;73.268;2023-11-21T07:30:25;102463.66;;;-12.00;100.00
59168;BME280;70412;55.048;73.268;2023-11-21T07:33:27;102464.13;;;-12.07;100.00
59168;BME280;70412;55.048;73.268;2023-11-21T07:36:30;102445.41;;;-12.09;100.00
59168;BME280;70412;55.048;73.268;2023-11-21T07:39:32;102412.28;;;-11.99;100.00
59168;BME280;70412;55.048;73.268;2023-11-21T07:42:37;102433.78;;;-11.59;100.00
59168;BME280;70412;55.048;73.268;2023-11-21T07:45:40;102438.41;;;-11.83;100.00
59168;BME280;70412;55.048;73.268;2023-11-21T07:48:42;102460.91;;;-11.73;100.00
59168;BME280;70412;55.048;73.268;2023-11-21T07:51:45;102463.50;;;-12.03;100.00
59168;BME280;70412;55.048;73.268;2023-11-21T07:54:47;102453.88;;;-11.94;100.00
59168;BME280;70412;55.048;73.268;2023-11-21T07:57:49;102439.78;;;-11.74;100.00
59168;BME280;70412;55.048;73.268;2023-11-21T08:00:52;102326.16;;;-12.31;100.00
59168;BME280;70412;55.048;73.268;2023-11-21T08:03:54;102407.13;;;-11.69;100.00
59168;BME280;70412;55.048;73.268;2023-11-21T08:06:58;102394.91;;;-11.76;100.00
59168;BME280;70412;55.048;73.268;2023-11-21T08:10:01;102392.97;;;-11.66;100.00
59168;BME280;70412;55.048;73.268;2023-11-21T08:13:03;102413.25;;;-11.33;100.00
59168;BME280;70412;55.048;73.268;2023-11-21T08:16:07;102417.34;;;-11.51;100.00
59168;BME280;70412;55.048;73.268;2023-11-21T08:19:11;102419.81;;;-11.53;100.00
59168;BME280;70412;55.048;73.268;2023-11-21T08:22:16;102419.34;;;-11.29;100.00
59168;BME280;70412;55.048;73.268;2023-11-21T08:25:19;102416.03;;;-11.28;100.00
59168;BME280;70412;55.048;73.268;2023-11-21T08:28:22;102418.88;;;-11.39;100.00
59168;BME280;70412;55.048;73.268;2023-11-21T08:31:26;102400.50;;;-11.18;100.00
59168;BME280;70412;55.048;73.268;2023-11-21T08:34:28;102408.72;;;-10.90;100.00
59168;BME280;70412;55.048;73.268;2023-11-21T08:37:31;102409.84;;;-11.34;100.00
59168;BME280;70412;55.048;73.268;2023-11-21T08:40:35;102422.16;;;-10.91;100.00
59168;BME280;70412;55.048;73.268;2023-11-21T08:43:37;102411.78;;;-10.95;100.00
59168;BME280;70412;55.048;73.268;2023-11-21T08:46:41;102410.56;;;-10.69;100.00
59168;BME280;70412;55.048;73.268;2023-11-21T08:49:45;102407.09;;;-10.72;100.00
59168;BME280;70412;55.048;73.268;2023-11-21T08:52:48;102406.63;;;-10.81;100.00
59168;BME280;70412;55.048;73.268;2023-11-21T08:55:51;102379.72;;;-10.61;100.00
59168;BME280;70412;55.048;73.268;2023-11-21T08:58:53;102371.16;;;-10.97;100.00
59168;BME280;70412;55.048;73.268;2023-11-21T09:01:55;102359.31;;;-11.14;100.00
59168;BME280;70412;55.048;73.268;2023-11-21T09:05:00;102354.69;;;-11.23;100.00
59168;BME280;70412;55.048;73.268;2023-11-21T09:08:05;102343.38;;;-11.46;100.00
59168;BME280;70412;55.048;73.268;2023-11-21T09:11:08;102366.00;;;-11.49;100.00
59168;BME280;70412;55.048;73.268;2023-11-21T09:14:11;102352.25;;;-11.54;100.00
59168;BME280;70412;55.048;73.268;2023-11-21T09:17:15;102345.44;;;-11.55;100.00
59168;BME280;70412;55.048;73.268;2023-11-21T09:20:17;102342.13;;;-11.54;100.00
59168;BME280;70412;55.048;73.268;2023-11-21T09:23:20;102333.50;;;-11.74;100.00
59168;BME280;70412;55.048;73.268;2023-11-21T09:26:22;102320.59;;;-11.62;100.00
59168;BME280;70412;55.048;73.268;2023-11-21T09:29:27;102341.97;;;-11.57;100.00
59168;BME280;70412;55.048;73.268;2023-11-21T09:32:31;102340.75;;;-11.80;100.00
59168;BME280;70412;55.048;73.268;2023-11-21T09:35:33;102331.97;;;-11.86;100.00
59168;BME280;70412;55.048;73.268;2023-11-21T09:38:36;102343.69;;;-11.72;100.00
59168;BME280;70412;55.048;73.268;2023-11-21T09:41:43;102345.56;;;-11.84;100.00
59168;BME280;70412;55.048;73.268;2023-11-21T09:45:09;102311.78;;;-12.01;100.00
59168;BME280;70412;55.048;73.268;2023-11-21T09:48:14;102332.28;;;-11.80;100.00
59168;BME280;70412;55.048;73.268;2023-11-21T09:51:20;102334.63;;;-12.00;100.00
59168;BME280;70412;55.048;73.268;2023-11-21T09:54:25;102326.16;;;-12.31;100.00
59168;BME280;70412;55.048;73.268;2023-11-21T09:57:28;102354.03;;;-12.15;100.00
59168;BME280;70412;55.048;73.268;2023-11-21T10:00:32;102361.00;;;-12.11;100.00
59168;BME280;70412;55.048;73.268;2023-11-21T10:03:35;102372.53;;;-12.16;100.00
59168;BME280;70412;55.048;73.268;2023-11-21T10:06:41;102370.09;;;-12.14;100.00
59168;BME280;70412;55.048;73.268;2023-11-21T10:09:44;102356.56;;;-12.15;100.00
59168;BME280;70412;55.048;73.268;2023-11-21T10:12:50;102352.81;;;-12.07;100.00
59168;BME280;70412;55.048;73.268;2023-11-21T10:15:55;102348.69;;;-12.05;100.00
59168;BME280;70412;55.048;73.268;2023-11-21T10:18:58;102325.41;;;-12.14;100.00
59168;BME280;70412;55.048;73.268;2023-11-21T10:22:02;102316.22;;;-12.28;100.00
59168;BME280;70412;55.048;73.268;2023-11-21T10:25:05;102329.59;;;-12.14;100.00
59168;BME280;70412;55.048;73.268;2023-11-21T10:28:09;102303.91;;;-12.22;100.00
59168;BME280;70412;55.048;73.268;2023-11-21T10:31:12;102341.09;;;-12.05;100.00
59168;BME280;70412;55.048;73.268;2023-11-21T10:34:15;102332.72;;;-12.04;100.00
59168;BME280;70412;55.048;73.268;2023-11-21T10:37:18;102315.97;;;-12.02;100.00
59168;BME280;70412;55.048;73.268;2023-11-21T10:40:21;102332.03;;;-12.01;100.00
59168;BME280;70412;55.048;73.268;2023-11-21T10:43:27;102318.03;;;-11.95;100.00
59168;BME280;70412;55.048;73.268;2023-11-21T10:46:30;102315.50;;;-11.95;100.00
59168;BME280;70412;55.048;73.268;2023-11-21T10:49:32;102312.66;;;-11.84;100.00
59168;BME280;70412;55.048;73.268;2023-11-21T10:52:35;102314.78;;;-11.92;100.00
59168;BME280;70412;55.048;73.268;2023-11-21T10:55:38;102285.91;;;-11.96;100.00
59168;BME280;70412;55.048;73.268;2023-11-21T10:58:41;102303.50;;;-11.82;100.00
59168;BME280;70412;55.048;73.268;2023-11-21T11:01:46;102261.56;;;-11.94;100.00
59168;BME280;70412;55.048;73.268;2023-11-21T11:04:52;102280.34;;;-11.74;100.00
59168;BME280;70412;55.048;73.268;2023-11-21T11:07:59;102273.44;;;-11.76;100.00
59168;BME280;70412;55.048;73.268;2023-11-21T11:11:12;102262.50;;;-11.75;100.00
59168;BME280;70412;55.048;73.268;2023-11-21T11:14:15;102272.03;;;-11.71;100.00
59168;BME280;70412;55.048;73.268;2023-11-21T11:17:19;102256.03;;;-11.70;100.00
59168;BME280;70412;55.048;73.268;2023-11-21T11:20:34;102255.41;;;-11.66;100.00
59168;BME280;70412;55.048;73.268;2023-11-21T11:37:24;102219.19;;;-11.81;100.00
59168;BME280;70412;55.048;73.268;2023-11-21T11:40:39;102209.84;;;-11.82;100.00
59168;BME280;70412;55.048;73.268;2023-11-21T11:43:42;102194.03;;;-11.78;100.00
59168;BME280;70412;55.048;73.268;2023-11-21T11:46:46;102192.88;;;-11.85;100.00
59168;BME280;70412;55.048;73.268;2023-11-21T11:53:13;102177.03;;;-11.81;100.00
59168;BME280;70412;55.048;73.268;2023-11-21T11:56:26;102184.84;;;-11.76;100.00
59168;BME280;70412;55.048;73.268;2023-11-21T11:59:29;102176.97;;;-11.82;100.00
59168;BME280;70412;55.048;73.268;2023-11-21T12:02:32;102193.50;;;-11.73;100.00
59168;BME280;70412;55.048;73.268;2023-11-21T12:05:36;102195.22;;;-11.72;100.00
59168;BME280;70412;55.048;73.268;2023-11-21T12:08:41;102193.25;;;-11.77;100.00
59168;BME280;70412;55.048;73.268;2023-11-21T12:11:43;102187.13;;;-11.65;100.00
59168;BME280;70412;55.048;73.268;2023-11-21T12:14:49;102190.31;;;-11.69;100.00
59168;BME280;70412;55.048;73.268;2023-11-21T12:17:52;102206.69;;;-11.44;100.00
59168;BME280;70412;55.048;73.268;2023-11-21T12:20:55;102218.31;;;-11.32;100.00
59168;BME280;70412;55.048;73.268;2023-11-21T12:23:58;102225.69;;;-11.18;100.00
59168;BME280;70412;55.048;73.268;2023-11-21T12:27:00;102202.69;;;-11.05;100.00
59168;BME280;70412;55.048;73.268;2023-11-21T12:30:03;102208.38;;;-10.91;100.00
59168;BME280;70412;55.048;73.268;2023-11-21T12:33:06;102190.75;;;-10.90;100.00
59168;BME280;70412;55.048;73.268;2023-11-21T12:36:11;102185.16;;;-10.83;100.00
59168;BME280;70412;55.048;73.268;2023-11-21T12:39:14;102174.28;;;-10.80;100.00
59168;BME280;70412;55.048;73.268;2023-11-21T12:42:17;102151.69;;;-10.93;100.00
59168;BME280;70412;55.048;73.268;2023-11-21T12:45:24;102170.94;;;-10.79;100.00
59168;BME280;70412;55.048;73.268;2023-11-21T12:48:29;102142.41;;;-10.93;100.00
59168;BME280;70412;55.048;73.268;2023-11-21T12:51:32;102155.25;;;-10.72;100.00
59168;BME280;70412;55.048;73.268;2023-11-21T12:54:35;102153.41;;;-10.75;100.00
59168;BME280;70412;55.048;73.268;2023-11-21T12:57:41;102112.38;;;-10.85;100.00
59168;BME280;70412;55.048;73.268;2023-11-21T13:00:59;102121.53;;;-10.69;100.00
59168;BME280;70412;55.048;73.268;2023-11-21T13:04:14;102128.22;;;-10.72;100.00
59168;BME280;70412;55.048;73.268;2023-11-21T13:07:17;102140.97;;;-10.70;100.00
59168;BME280;70412;55.048;73.268;2023-11-21T13:10:25;102128.34;;;-10.68;100.00
59168;BME280;70412;55.048;73.268;2023-11-21T13:13:32;102102.31;;;-10.84;100.00
59168;BME280;70412;55.048;73.268;2023-11-21T13:16:47;102121.69;;;-10.66;100.00
59168;BME280;70412;55.048;73.268;2023-11-21T13:19:50;102106.47;;;-10.66;100.00
59168;BME280;70412;55.048;73.268;2023-11-21T13:22:57;102108.19;;;-10.65;100.00
59168;BME280;70412;55.048;73.268;2023-11-21T13:26:01;102110.72;;;-10.65;100.00
59168;BME280;70412;55.048;73.268;2023-11-21T13:29:05;102072.56;;;-10.88;100.00
59168;BME280;70412;55.048;73.268;2023-11-21T13:32:11;102094.72;;;-10.64;100.00
59168;BME280;70412;55.048;73.268;2023-11-21T13:35:30;102091.50;;;-10.60;100.00
59168;BME280;70412;55.048;73.268;2023-11-21T13:38:52;102099.19;;;-10.59;100.00
59168;BME280;70412;55.048;73.268;2023-11-21T13:42:12;102086.44;;;-10.60;100.00
59168;BME280;70412;55.048;73.268;2023-11-21T13:45:14;102068.25;;;-10.71;100.00
59168;BME280;70412;55.048;73.268;2023-11-21T13:48:18;102100.16;;;-10.57;100.00
59168;BME280;70412;55.048;73.268;2023-11-21T13:51:27;102075.78;;;-10.53;100.00
59168;BME280;70412;55.048;73.268;2023-11-21T13:54:39;102076.34;;;-10.59;100.00
59168;BME280;70412;55.048;73.268;2023-11-21T13:57:42;102078.38;;;-10.52;100.00
59168;BME280;70412;55.048;73.268;2023-11-21T14:00:51;102076.66;;;-10.53;100.00
59168;BME280;70412;55.048;73.268;2023-11-21T14:04:01;102067.44;;;-10.51;100.00
59168;BME280;70412;55.048;73.268;2023-11-21T14:07:19;102072.50;;;-10.51;100.00
59168;BME280;70412;55.048;73.268;2023-11-21T14:10:41;102068.44;;;-10.47;100.00
59168;BME280;70412;55.048;73.268;2023-11-21T14:13:45;102060.88;;;-10.46;100.00
59168;BME280;70412;55.048;73.268;2023-11-21T14:16:50;102056.50;;;-10.50;100.00
59168;BME280;70412;55.048;73.268;2023-11-21T14:19:53;102085.66;;;-10.40;100.00
59168;BME280;70412;55.048;73.268;2023-11-21T14:22:57;102070.44;;;-10.40;100.00
59168;BME280;70412;55.048;73.268;2023-11-21T14:26:00;102055.06;;;-10.43;100.00
59168;BME280;70412;55.048;73.268;2023-11-21T14:29:03;102059.91;;;-10.49;100.00
59168;BME280;70412;55.048;73.268;2023-11-21T14:32:07;102056.81;;;-10.42;100.00
59168;BME280;70412;55.048;73.268;2023-11-21T14:35:09;102055.81;;;-10.46;100.00
59168;BME280;70412;55.048;73.268;2023-11-21T14:38:12;102053.22;;;-10.47;100.00
59168;BME280;70412;55.048;73.268;2023-11-21T14:41:16;102049.00;;;-10.47;100.00
59168;BME280;70412;55.048;73.268;2023-11-21T14:44:19;102048.13;;;-10.47;100.00
59168;BME280;70412;55.048;73.268;2023-11-21T14:47:22;102053.34;;;-10.44;100.00
59168;BME280;70412;55.048;73.268;2023-11-21T14:50:28;102032.19;;;-10.45;100.00
59168;BME280;70412;55.048;73.268;2023-11-21T14:53:42;102042.13;;;-10.49;100.00
59168;BME280;70412;55.048;73.268;2023-11-21T14:56:56;102026.78;;;-10.52;100.00
59168;BME280;70412;55.048;73.268;2023-11-21T14:59:58;102021.78;;;-10.51;100.00
59168;BME280;70412;55.048;73.268;2023-11-21T15:03:03;102021.06;;;-10.48;100.00
59168;BME280;70412;55.048;73.268;2023-11-21T15:06:06;102016.09;;;-10.45;100.00
59168;BME280;70412;55.048;73.268;2023-11-21T15:09:27;102009.16;;;-10.49;100.00
59168;BME280;70412;55.048;73.268;2023-11-21T15:12:37;101992.22;;;-10.50;100.00
59168;BME280;70412;55.048;73.268;2023-11-21T15:15:42;101991.53;;;-10.46;100.00
59168;BME280;70412;55.048;73.268;2023-11-21T15:18:44;101980.47;;;-10.48;100.00
59168;BME280;70412;55.048;73.268;2023-11-21T15:21:47;101977.00;;;-10.50;100.00
59168;BME280;70412;55.048;73.268;2023-11-21T15:24:49;101952.97;;;-10.58;100.00
59168;BME280;70412;55.048;73.268;2023-11-21T15:27:52;101976.25;;;-10.48;100.00
59168;BME280;70412;55.048;73.268;2023-11-21T15:30:55;101973.09;;;-10.42;100.00
59168;BME280;70412;55.048;73.268;2023-11-21T15:33:59;101975.66;;;-10.42;100.00
59168;BME280;70412;55.048;73.268;2023-11-21T15:37:02;101962.44;;;-10.35;100.00
59168;BME280;70412;55.048;73.268;2023-11-21T15:40:05;101957.34;;;-10.35;100.00
59168;BME280;70412;55.048;73.268;2023-11-21T15:43:12;101935.22;;;-10.39;100.00